createdAt,value
2022-12-26T00:05:00.662Z,5.62
2022-12-26T00:10:04.205Z,5.68
2022-12-26T00:15:07.706Z,5.61
2022-12-26T00:20:12.362Z,5.76
2022-12-26T00:25:15.695Z,5.77
2022-12-26T00:30:18.791Z,5.82
2022-12-26T00:35:22.194Z,5.96
2022-12-26T00:40:25.306Z,5.96
2022-12-26T00:45:28.431Z,6.12
2022-12-26T00:50:34.786Z,5.79
2022-12-26T00:55:38.634Z,5.86
2022-12-26T01:00:42.716Z,5.87
2022-12-26T01:05:49.229Z,5.87
2022-12-26T01:10:53.608Z,5.84
2022-12-26T01:15:57.348Z,5.77
2022-12-26T01:21:09.099Z,5.83
2022-12-26T01:26:17.292Z,5.77
2022-12-26T01:31:23.917Z,5.76
2022-12-26T01:36:27.016Z,5.67
2022-12-26T01:41:30.629Z,5.58
2022-12-26T01:46:45.820Z,5.64
2022-12-26T01:51:54.982Z,5.77
2022-12-26T01:56:58.764Z,5.66
2022-12-26T02:02:02.887Z,5.42
2022-12-26T02:07:07.191Z,5.30
2022-12-26T02:12:35.720Z,5.35
2022-12-26T02:17:41.319Z,5.32
2022-12-26T02:23:09.192Z,5.49
2022-12-26T02:28:31.364Z,5.34
2022-12-26T02:33:49.428Z,5.34
2022-12-26T02:39:44.615Z,5.41
2022-12-26T02:45:35.078Z,5.37
2022-12-26T02:51:25.418Z,5.34
2022-12-26T02:56:57.153Z,5.24
2022-12-26T03:02:22.751Z,5.20
2022-12-26T03:07:52.072Z,5.19
2022-12-26T03:13:13.568Z,5.15
2022-12-26T03:18:20.332Z,5.09
2022-12-26T03:23:46.714Z,5.05
2022-12-26T03:28:50.223Z,5.06
2022-12-26T03:34:11.902Z,5.14
2022-12-26T03:40:02.064Z,5.15
2022-12-26T03:46:16.368Z,5.27
2022-12-26T03:52:04.469Z,5.34
2022-12-26T03:57:33.036Z,5.38
2022-12-26T04:02:58.204Z,5.40
2022-12-26T04:08:25.269Z,5.39
2022-12-26T04:14:21.091Z,5.40
2022-12-26T04:20:18.446Z,5.37
2022-12-26T04:25:50.498Z,5.38
2022-12-26T04:31:23.094Z,5.46
2022-12-26T04:36:54.015Z,5.47
2022-12-26T04:42:19.014Z,5.38
2022-12-26T04:47:22.828Z,5.30
2022-12-26T04:52:46.964Z,5.24
2022-12-26T04:57:50.056Z,5.19
2022-12-26T05:03:18.222Z,5.27
2022-12-26T05:08:53.014Z,5.33
2022-12-26T05:13:57.891Z,5.29
2022-12-26T05:19:19.602Z,5.20
2022-12-26T05:24:41.295Z,5.06
2022-12-26T05:29:44.581Z,5.12
2022-12-26T05:34:47.612Z,5.24
2022-12-26T05:39:50.794Z,5.25
2022-12-26T05:44:54.074Z,5.28
2022-12-26T05:49:57.178Z,5.28
2022-12-26T05:55:00.387Z,5.34
2022-12-26T06:00:04.963Z,5.40
2022-12-26T06:05:08.401Z,5.34
2022-12-26T06:10:13.681Z,5.20
2022-12-26T06:15:17.798Z,5.08
2022-12-26T06:20:21.370Z,5.30
2022-12-26T06:25:25.213Z,5.22
2022-12-26T06:30:28.287Z,5.24
2022-12-26T06:35:34.943Z,5.23
2022-12-26T06:40:41.252Z,5.47
2022-12-26T06:45:45.147Z,5.86
2022-12-26T06:50:49.062Z,6.08
2022-12-26T06:55:53.195Z,6.34
2022-12-26T07:00:56.248Z,6.53
2022-12-26T07:06:07.151Z,6.93
2022-12-26T07:11:16.269Z,9.10
2022-12-26T07:16:19.399Z,13.94
2022-12-26T07:21:24.070Z,16.57
2022-12-26T07:26:27.481Z,18.35
2022-12-26T07:31:30.695Z,19.58
2022-12-26T07:36:35.187Z,21.46
2022-12-26T07:41:57.150Z,22.71
2022-12-26T07:47:01.839Z,24.52
2022-12-26T07:52:05.138Z,25.82
2022-12-26T07:57:46.276Z,26.58
2022-12-26T08:02:33.720Z,27.27
2022-12-26T08:07:37.410Z,28.42
2022-12-26T08:12:41.442Z,28.71
2022-12-26T08:17:45.009Z,29.58
2022-12-26T08:22:48.221Z,30.84
2022-12-26T08:27:51.379Z,31.13
2022-12-26T08:32:54.490Z,31.35
2022-12-26T08:37:58.121Z,32.27
2022-12-26T08:43:21.588Z,31.51
2022-12-26T08:48:25.601Z,29.92
2022-12-26T08:53:32.986Z,31.43
2022-12-26T08:58:36.128Z,30.97
2022-12-26T09:03:39.993Z,31.42
2022-12-26T09:08:43.322Z,29.77
2022-12-26T09:13:47.789Z,29.98
2022-12-26T09:18:56.153Z,30.53
2022-12-26T09:24:06.584Z,31.75
2022-12-26T09:29:13.426Z,30.78
2022-12-26T09:34:16.488Z,29.91
2022-12-26T09:39:19.596Z,29.40
2022-12-26T09:44:26.268Z,30.97
2022-12-26T09:49:35.012Z,30.59
2022-12-26T09:54:43.006Z,31.13
2022-12-26T10:00:00.926Z,30.37
2022-12-26T10:05:06.341Z,29.38
2022-12-26T10:10:34.118Z,30.15
2022-12-26T10:15:53.250Z,30.16
2022-12-26T10:21:22.878Z,30.11
2022-12-26T10:26:35.563Z,28.72
2022-12-26T10:31:57.838Z,29.18
2022-12-26T10:37:34.373Z,29.49
2022-12-26T10:42:48.623Z,28.07
2022-12-26T10:47:53.338Z,27.31
2022-12-26T10:53:01.738Z,27.39
2022-12-26T10:58:26.523Z,26.08
2022-12-26T11:03:32.737Z,24.84
2022-12-26T11:08:47.647Z,23.16
2022-12-26T11:14:02.123Z,22.70
2022-12-26T11:19:06.296Z,22.71
2022-12-26T11:24:09.340Z,22.58
2022-12-26T11:29:14.746Z,22.26
2022-12-26T11:34:24.727Z,22.27
2022-12-26T11:39:33.040Z,22.45
2022-12-26T11:44:41.372Z,22.63
2022-12-26T11:50:21.703Z,22.05
2022-12-26T11:55:25.511Z,22.49
2022-12-26T12:00:30.276Z,21.89
2022-12-26T12:05:57.285Z,23.29
2022-12-26T12:11:26.318Z,23.26
2022-12-26T12:16:38.865Z,24.43
2022-12-26T12:21:48.507Z,23.98
2022-12-26T12:27:29.418Z,24.18
2022-12-26T12:32:52.013Z,24.52
2022-12-26T12:38:11.446Z,24.93
2022-12-26T12:43:39.356Z,24.96
2022-12-26T12:48:55.127Z,25.81
2022-12-26T12:54:50.852Z,24.91
2022-12-26T13:00:06.185Z,25.56
2022-12-26T13:05:33.609Z,25.76
2022-12-26T13:10:42.300Z,25.53
2022-12-26T13:15:50.605Z,25.75
2022-12-26T13:20:59.524Z,25.90
2022-12-26T13:26:16.448Z,25.91
2022-12-26T13:31:20.105Z,25.82
2022-12-26T13:36:43.771Z,26.12
2022-12-26T13:42:10.007Z,25.74
2022-12-26T13:47:40.415Z,26.26
2022-12-26T13:52:47.637Z,26.34
2022-12-26T13:58:13.538Z,25.90
2022-12-26T14:03:49.623Z,25.14
2022-12-26T14:09:21.771Z,24.74
2022-12-26T14:14:42.769Z,24.81
2022-12-26T14:20:24.275Z,24.15
2022-12-26T14:25:44.747Z,21.97
2022-12-26T14:31:09.202Z,20.89
2022-12-26T14:36:32.068Z,19.74
2022-12-26T14:42:25.090Z,19.05
2022-12-26T14:47:42.418Z,18.54
2022-12-26T14:52:48.101Z,18.08
2022-12-26T14:57:52.094Z,17.57
2022-12-26T15:03:34.263Z,17.14
2022-12-26T15:09:12.059Z,16.66
2022-12-26T15:14:44.117Z,16.10
2022-12-26T15:20:14.748Z,15.50
2022-12-26T15:25:27.263Z,15.08
2022-12-26T15:30:58.264Z,14.48
2022-12-26T15:36:17.890Z,14.02
2022-12-26T15:41:50.135Z,13.64
2022-12-26T15:46:58.483Z,13.16
2022-12-26T15:52:29.485Z,12.76
2022-12-26T15:58:20.153Z,12.38
2022-12-26T16:03:47.736Z,12.08
2022-12-26T16:09:09.558Z,11.83
2022-12-26T16:14:29.121Z,11.38
2022-12-26T16:19:32.293Z,11.24
2022-12-26T16:24:39.040Z,11.02
2022-12-26T16:29:58.925Z,10.83
2022-12-26T16:35:05.290Z,10.53
2022-12-26T16:40:30.294Z,10.32
2022-12-26T16:45:38.445Z,10.13
2022-12-26T16:50:51.176Z,9.84
2022-12-26T16:56:15.679Z,9.57
2022-12-26T17:01:22.684Z,9.54
2022-12-26T17:06:31.258Z,9.50
2022-12-26T17:11:38.191Z,9.55
2022-12-26T17:16:41.919Z,9.49
2022-12-26T17:22:23.627Z,9.58
2022-12-26T17:27:27.702Z,9.75
2022-12-26T17:32:42.091Z,9.63
2022-12-26T17:37:47.531Z,9.47
2022-12-26T17:42:54.787Z,9.60
2022-12-26T17:47:58.341Z,9.53
2022-12-26T17:53:30.580Z,9.29
2022-12-26T17:58:35.183Z,8.92
2022-12-26T18:03:38.449Z,8.67
2022-12-26T18:08:42.306Z,8.54
2022-12-26T18:13:45.438Z,8.42
2022-12-26T18:18:48.953Z,8.26
2022-12-26T18:23:52.744Z,8.27
2022-12-26T18:28:56.385Z,8.15
2022-12-26T18:33:59.933Z,8.12
2022-12-26T18:39:04.751Z,8.00
2022-12-26T18:44:08.763Z,8.00
2022-12-26T18:49:18.576Z,7.57
2022-12-26T18:54:22.362Z,7.89
2022-12-26T18:59:25.663Z,7.77
2022-12-26T19:04:28.848Z,7.74
2022-12-26T19:09:32.858Z,7.61
2022-12-26T19:14:36.385Z,7.63
2022-12-26T19:19:40.690Z,7.70
2022-12-26T19:24:45.113Z,7.71
2022-12-26T19:29:49.076Z,7.61
2022-12-26T19:34:56.319Z,7.68
2022-12-26T19:39:59.920Z,7.57
2022-12-26T19:45:05.951Z,7.62
2022-12-26T19:50:11.972Z,7.60
2022-12-26T19:55:15.782Z,7.59
2022-12-26T20:00:19.654Z,7.61
2022-12-26T20:05:22.936Z,7.52
2022-12-26T20:10:26.567Z,7.60
2022-12-26T20:15:30.344Z,7.48
2022-12-26T20:20:33.477Z,7.39
2022-12-26T20:25:39.045Z,7.30
2022-12-26T20:30:42.668Z,7.22
2022-12-26T20:35:46.704Z,7.33
2022-12-26T20:40:53.191Z,7.21
2022-12-26T20:45:59.772Z,7.21
2022-12-26T20:51:09.321Z,7.16
2022-12-26T20:56:13.144Z,7.20
2022-12-26T21:01:19.292Z,7.25
2022-12-26T21:06:26.354Z,7.32
2022-12-26T21:11:32.794Z,7.47
2022-12-26T21:16:38.919Z,7.24
2022-12-26T21:21:44.561Z,7.11
2022-12-26T21:26:49.385Z,7.08
2022-12-26T21:31:54.073Z,7.12
2022-12-26T21:37:17.514Z,7.14
2022-12-26T21:42:21.108Z,7.26
2022-12-26T21:47:24.332Z,7.10
2022-12-26T21:52:28.323Z,6.94
2022-12-26T21:57:34.972Z,7.00
2022-12-26T22:02:58.150Z,7.07
2022-12-26T22:08:02.608Z,7.16
2022-12-26T22:13:07.081Z,7.03
2022-12-26T22:18:10.991Z,6.84
2022-12-26T22:23:15.602Z,6.79
2022-12-26T22:28:23.294Z,6.75
2022-12-26T22:33:28.383Z,6.50
2022-12-26T22:38:32.128Z,6.48
2022-12-26T22:43:36.417Z,6.43
2022-12-26T22:48:39.893Z,6.32
2022-12-26T22:53:43.942Z,6.07
2022-12-26T22:58:47.198Z,6.04
2022-12-26T23:03:50.439Z,6.15
2022-12-26T23:08:57.142Z,6.36
2022-12-26T23:14:01.776Z,6.50
2022-12-26T23:19:37.764Z,7.62
2022-12-26T23:24:49.329Z,7.92
2022-12-26T23:30:13.036Z,7.57
2022-12-26T23:35:16.688Z,7.38
2022-12-26T23:40:20.656Z,7.25
2022-12-26T23:45:24.462Z,7.20
2022-12-26T23:50:28.084Z,7.17
2022-12-26T23:55:31.812Z,7.04
